sensor_id;sensor_type;location;lat;lon;timestamp;P1;durP1;ratioP1;P2;durP2;ratioP2
79137;SDS011;68544;45.566;10.238;2023-09-30T13:48:26;21.90;;;16.48;;
79137;SDS011;68544;45.566;10.238;2023-09-30T13:50:51;21.38;;;19.25;;
79137;SDS011;68544;45.566;10.238;2023-09-30T13:53:17;27.83;;;20.80;;
79137;SDS011;68544;45.566;10.238;2023-09-30T13:55:42;20.02;;;17.40;;
79137;SDS011;68544;45.566;10.238;2023-09-30T13:58:07;20.40;;;18.50;;
79137;SDS011;68544;45.566;10.238;2023-09-30T14:00:33;21.98;;;18.25;;
79137;SDS011;68544;45.566;10.238;2023-09-30T14:02:59;20.92;;;17.38;;
79137;SDS011;68544;45.566;10.238;2023-09-30T14:05:25;19.30;;;17.15;;
79137;SDS011;68544;45.566;10.238;2023-09-30T14:07:50;20.27;;;18.38;;
79137;SDS011;68544;45.566;10.238;2023-09-30T14:10:16;20.95;;;18.92;;
79137;SDS011;68544;45.566;10.238;2023-09-30T14:12:41;23.15;;;19.65;;
79137;SDS011;68544;45.566;10.238;2023-09-30T14:15:07;21.88;;;18.60;;
79137;SDS011;68544;45.566;10.238;2023-09-30T14:17:33;20.58;;;18.40;;
79137;SDS011;68544;45.566;10.238;2023-09-30T14:20:00;20.40;;;16.58;;
79137;SDS011;68544;45.566;10.238;2023-09-30T14:22:25;21.00;;;19.05;;
79137;SDS011;68544;45.566;10.238;2023-09-30T14:24:51;22.38;;;19.80;;
79137;SDS011;68544;45.566;10.238;2023-09-30T14:27:16;19.95;;;17.73;;
79137;SDS011;68544;45.566;10.238;2023-09-30T14:29:42;20.65;;;18.65;;
79137;SDS011;68544;45.566;10.238;2023-09-30T14:32:08;20.35;;;17.33;;
79137;SDS011;68544;45.566;10.238;2023-09-30T14:34:33;21.80;;;18.90;;
79137;SDS011;68544;45.566;10.238;2023-09-30T14:36:59;20.33;;;18.27;;
79137;SDS011;68544;45.566;10.238;2023-09-30T14:39:24;21.17;;;16.92;;
79137;SDS011;68544;45.566;10.238;2023-09-30T14:41:50;20.63;;;17.35;;
79137;SDS011;68544;45.566;10.238;2023-09-30T14:44:15;24.08;;;18.65;;
79137;SDS011;68544;45.566;10.238;2023-09-30T14:46:41;20.75;;;18.75;;
79137;SDS011;68544;45.566;10.238;2023-09-30T14:49:07;20.52;;;16.08;;
79137;SDS011;68544;45.566;10.238;2023-09-30T14:51:33;19.40;;;17.08;;
79137;SDS011;68544;45.566;10.238;2023-09-30T14:53:59;18.73;;;16.75;;
79137;SDS011;68544;45.566;10.238;2023-09-30T14:56:24;17.80;;;16.05;;
79137;SDS011;68544;45.566;10.238;2023-09-30T14:58:49;19.17;;;15.98;;
79137;SDS011;68544;45.566;10.238;2023-09-30T15:01:15;21.13;;;17.30;;
79137;SDS011;68544;45.566;10.238;2023-09-30T15:03:40;19.77;;;16.35;;
79137;SDS011;68544;45.566;10.238;2023-09-30T15:06:06;20.27;;;18.13;;
79137;SDS011;68544;45.566;10.238;2023-09-30T15:08:32;17.35;;;15.40;;
79137;SDS011;68544;45.566;10.238;2023-09-30T15:11:01;16.70;;;15.10;;
79137;SDS011;68544;45.566;10.238;2023-09-30T15:13:27;19.27;;;17.27;;
79137;SDS011;68544;45.566;10.238;2023-09-30T15:15:53;17.52;;;15.82;;
79137;SDS011;68544;45.566;10.238;2023-09-30T15:18:19;22.52;;;15.45;;
79137;SDS011;68544;45.566;10.238;2023-09-30T15:20:45;22.92;;;18.38;;
79137;SDS011;68544;45.566;10.238;2023-09-30T15:23:12;18.35;;;16.27;;
79137;SDS011;68544;45.566;10.238;2023-09-30T15:25:40;16.38;;;13.63;;
79137;SDS011;68544;45.566;10.238;2023-09-30T15:28:07;16.55;;;14.93;;
79137;SDS011;68544;45.566;10.238;2023-09-30T15:30:33;18.80;;;16.45;;
79137;SDS011;68544;45.566;10.238;2023-09-30T15:32:58;18.38;;;16.58;;
79137;SDS011;68544;45.566;10.238;2023-09-30T15:35:23;20.08;;;18.05;;
79137;SDS011;68544;45.566;10.238;2023-09-30T15:37:49;18.38;;;15.50;;
79137;SDS011;68544;45.566;10.238;2023-09-30T15:40:14;20.20;;;16.90;;
79137;SDS011;68544;45.566;10.238;2023-09-30T15:42:42;16.52;;;14.95;;
79137;SDS011;68544;45.566;10.238;2023-09-30T15:45:08;18.20;;;14.45;;
79137;SDS011;68544;45.566;10.238;2023-09-30T15:47:36;19.10;;;12.77;;
79137;SDS011;68544;45.566;10.238;2023-09-30T15:50:02;14.65;;;12.95;;
79137;SDS011;68544;45.566;10.238;2023-09-30T15:52:28;15.45;;;13.13;;
79137;SDS011;68544;45.566;10.238;2023-09-30T15:54:53;14.55;;;13.02;;
79137;SDS011;68544;45.566;10.238;2023-09-30T15:57:19;18.02;;;13.23;;
79137;SDS011;68544;45.566;10.238;2023-09-30T15:59:45;16.90;;;12.75;;
79137;SDS011;68544;45.566;10.238;2023-09-30T16:02:10;15.05;;;12.18;;
79137;SDS011;68544;45.566;10.238;2023-09-30T16:04:35;16.60;;;13.23;;
79137;SDS011;68544;45.566;10.238;2023-09-30T16:07:00;17.15;;;12.77;;
79137;SDS011;68544;45.566;10.238;2023-09-30T16:09:26;16.08;;;12.35;;
79137;SDS011;68544;45.566;10.238;2023-09-30T16:11:51;14.05;;;12.52;;
79137;SDS011;68544;45.566;10.238;2023-09-30T16:14:17;14.77;;;12.23;;
79137;SDS011;68544;45.566;10.238;2023-09-30T16:16:42;16.63;;;13.38;;
79137;SDS011;68544;45.566;10.238;2023-09-30T16:19:08;15.20;;;12.07;;
79137;SDS011;68544;45.566;10.238;2023-09-30T16:21:33;17.00;;;12.60;;
79137;SDS011;68544;45.566;10.238;2023-09-30T16:23:59;15.13;;;13.02;;
79137;SDS011;68544;45.566;10.238;2023-09-30T16:26:24;14.52;;;13.00;;
79137;SDS011;68544;45.566;10.238;2023-09-30T16:28:51;20.42;;;12.88;;
79137;SDS011;68544;45.566;10.238;2023-09-30T16:31:16;19.48;;;13.93;;
79137;SDS011;68544;45.566;10.238;2023-09-30T16:33:42;15.50;;;12.98;;
79137;SDS011;68544;45.566;10.238;2023-09-30T16:36:07;17.92;;;13.68;;
79137;SDS011;68544;45.566;10.238;2023-09-30T16:38:33;15.65;;;13.18;;
79137;SDS011;68544;45.566;10.238;2023-09-30T16:40:58;17.73;;;14.07;;
79137;SDS011;68544;45.566;10.238;2023-09-30T16:43:23;16.35;;;14.20;;
79137;SDS011;68544;45.566;10.238;2023-09-30T16:45:49;22.23;;;15.80;;
79137;SDS011;68544;45.566;10.238;2023-09-30T16:50:43;19.15;;;14.68;;
79137;SDS011;68544;45.566;10.238;2023-09-30T16:53:09;17.23;;;13.55;;
79137;SDS011;68544;45.566;10.238;2023-09-30T16:55:35;15.43;;;13.35;;
79137;SDS011;68544;45.566;10.238;2023-09-30T16:58:01;26.58;;;13.45;;
79137;SDS011;68544;45.566;10.238;2023-09-30T17:00:27;13.88;;;12.40;;
79137;SDS011;68544;45.566;10.238;2023-09-30T17:02:52;18.98;;;12.57;;
79137;SDS011;68544;45.566;10.238;2023-09-30T17:05:18;15.32;;;13.73;;
79137;SDS011;68544;45.566;10.238;2023-09-30T17:07:44;17.00;;;13.40;;
79137;SDS011;68544;45.566;10.238;2023-09-30T17:10:10;16.92;;;13.93;;
79137;SDS011;68544;45.566;10.238;2023-09-30T17:12:36;16.92;;;15.18;;
79137;SDS011;68544;45.566;10.238;2023-09-30T17:15:01;16.40;;;14.65;;
79137;SDS011;68544;45.566;10.238;2023-09-30T17:17:30;16.08;;;13.95;;
79137;SDS011;68544;45.566;10.238;2023-09-30T17:19:56;15.60;;;13.55;;
79137;SDS011;68544;45.566;10.238;2023-09-30T17:24:47;16.30;;;14.10;;
79137;SDS011;68544;45.566;10.238;2023-09-30T17:29:39;16.40;;;12.88;;
79137;SDS011;68544;45.566;10.238;2023-09-30T17:34:32;17.02;;;13.57;;
79137;SDS011;68544;45.566;10.238;2023-09-30T17:37:00;18.05;;;13.13;;
79137;SDS011;68544;45.566;10.238;2023-09-30T17:39:26;14.55;;;13.18;;
79137;SDS011;68544;45.566;10.238;2023-09-30T17:44:17;19.33;;;15.03;;
79137;SDS011;68544;45.566;10.238;2023-09-30T17:49:08;18.10;;;14.50;;
79137;SDS011;68544;45.566;10.238;2023-09-30T17:53:58;17.90;;;13.60;;
79137;SDS011;68544;45.566;10.238;2023-09-30T17:58:51;18.95;;;14.75;;
79137;SDS011;68544;45.566;10.238;2023-09-30T18:01:17;17.60;;;15.75;;
79137;SDS011;68544;45.566;10.238;2023-09-30T18:03:46;19.58;;;15.75;;
79137;SDS011;68544;45.566;10.238;2023-09-30T18:08:41;19.35;;;15.63;;
79137;SDS011;68544;45.566;10.238;2023-09-30T18:11:07;16.20;;;14.60;;
79137;SDS011;68544;45.566;10.238;2023-09-30T18:13:34;16.58;;;14.13;;
79137;SDS011;68544;45.566;10.238;2023-09-30T18:18:25;17.73;;;15.93;;
79137;SDS011;68544;45.566;10.238;2023-09-30T18:23:16;17.65;;;15.82;;
79137;SDS011;68544;45.566;10.238;2023-09-30T18:28:06;21.33;;;16.83;;
79137;SDS011;68544;45.566;10.238;2023-09-30T18:32:58;18.98;;;17.08;;
79137;SDS011;68544;45.566;10.238;2023-09-30T18:37:49;19.63;;;16.98;;
79137;SDS011;68544;45.566;10.238;2023-09-30T18:42:40;20.08;;;17.75;;
79137;SDS011;68544;45.566;10.238;2023-09-30T18:47:31;19.73;;;17.75;;
79137;SDS011;68544;45.566;10.238;2023-09-30T18:52:23;19.23;;;17.17;;
79137;SDS011;68544;45.566;10.238;2023-09-30T18:57:14;19.60;;;17.20;;
79137;SDS011;68544;45.566;10.238;2023-09-30T19:02:05;20.70;;;17.00;;
79137;SDS011;68544;45.566;10.238;2023-09-30T19:06:56;20.10;;;18.07;;
79137;SDS011;68544;45.566;10.238;2023-09-30T19:11:47;19.73;;;17.17;;
79137;SDS011;68544;45.566;10.238;2023-09-30T19:16:38;19.85;;;17.85;;
79137;SDS011;68544;45.566;10.238;2023-09-30T19:19:05;20.50;;;17.85;;
79137;SDS011;68544;45.566;10.238;2023-09-30T19:23:55;20.30;;;17.92;;
79137;SDS011;68544;45.566;10.238;2023-09-30T19:28:46;19.67;;;17.58;;
79137;SDS011;68544;45.566;10.238;2023-09-30T19:31:12;24.95;;;18.55;;
79137;SDS011;68544;45.566;10.238;2023-09-30T19:33:38;21.00;;;17.92;;
79137;SDS011;68544;45.566;10.238;2023-09-30T19:38:32;21.75;;;18.65;;
79137;SDS011;68544;45.566;10.238;2023-09-30T19:43:24;20.63;;;18.63;;
79137;SDS011;68544;45.566;10.238;2023-09-30T19:45:49;20.90;;;18.90;;
79137;SDS011;68544;45.566;10.238;2023-09-30T19:48:15;21.50;;;19.10;;
79137;SDS011;68544;45.566;10.238;2023-09-30T19:50:40;20.58;;;18.67;;
79137;SDS011;68544;45.566;10.238;2023-09-30T19:55:31;21.07;;;18.87;;
79137;SDS011;68544;45.566;10.238;2023-09-30T19:57:56;22.48;;;18.88;;
79137;SDS011;68544;45.566;10.238;2023-09-30T20:02:47;20.48;;;18.48;;
79137;SDS011;68544;45.566;10.238;2023-09-30T20:05:12;22.45;;;19.35;;
79137;SDS011;68544;45.566;10.238;2023-09-30T20:10:04;21.35;;;19.08;;
79137;SDS011;68544;45.566;10.238;2023-09-30T20:12:31;27.30;;;20.33;;
79137;SDS011;68544;45.566;10.238;2023-09-30T20:14:56;22.30;;;20.08;;
79137;SDS011;68544;45.566;10.238;2023-09-30T20:19:48;20.88;;;18.90;;
79137;SDS011;68544;45.566;10.238;2023-09-30T20:24:38;22.53;;;20.23;;
79137;SDS011;68544;45.566;10.238;2023-09-30T20:27:04;22.50;;;20.20;;
79137;SDS011;68544;45.566;10.238;2023-09-30T20:31:55;22.08;;;19.88;;
79137;SDS011;68544;45.566;10.238;2023-09-30T20:36:46;22.90;;;20.67;;
79137;SDS011;68544;45.566;10.238;2023-09-30T20:39:12;21.63;;;19.60;;
79137;SDS011;68544;45.566;10.238;2023-09-30T20:41:38;21.67;;;19.65;;
79137;SDS011;68544;45.566;10.238;2023-09-30T20:44:04;23.33;;;21.13;;
79137;SDS011;68544;45.566;10.238;2023-09-30T20:46:31;22.63;;;20.58;;
79137;SDS011;68544;45.566;10.238;2023-09-30T20:48:57;23.13;;;20.70;;
79137;SDS011;68544;45.566;10.238;2023-09-30T20:51:22;21.33;;;19.17;;
79137;SDS011;68544;45.566;10.238;2023-09-30T20:53:48;21.52;;;19.33;;
79137;SDS011;68544;45.566;10.238;2023-09-30T20:56:15;21.05;;;18.85;;
79137;SDS011;68544;45.566;10.238;2023-09-30T20:58:41;20.52;;;18.13;;
79137;SDS011;68544;45.566;10.238;2023-09-30T21:01:06;20.48;;;18.33;;
79137;SDS011;68544;45.566;10.238;2023-09-30T21:03:36;20.17;;;17.30;;
79137;SDS011;68544;45.566;10.238;2023-09-30T21:06:02;18.50;;;16.80;;
79137;SDS011;68544;45.566;10.238;2023-09-30T21:08:28;19.60;;;17.58;;
79137;SDS011;68544;45.566;10.238;2023-09-30T21:10:54;20.05;;;18.25;;
79137;SDS011;68544;45.566;10.238;2023-09-30T21:15:44;20.93;;;18.60;;
79137;SDS011;68544;45.566;10.238;2023-09-30T21:18:10;19.00;;;17.17;;
79137;SDS011;68544;45.566;10.238;2023-09-30T21:20:35;19.63;;;17.73;;
79137;SDS011;68544;45.566;10.238;2023-09-30T21:23:00;21.42;;;18.77;;
79137;SDS011;68544;45.566;10.238;2023-09-30T21:27:51;19.23;;;17.33;;
79137;SDS011;68544;45.566;10.238;2023-09-30T21:30:16;20.25;;;18.30;;
79137;SDS011;68544;45.566;10.238;2023-09-30T21:32:42;19.42;;;17.45;;
79137;SDS011;68544;45.566;10.238;2023-09-30T21:37:32;20.83;;;18.83;;
79137;SDS011;68544;45.566;10.238;2023-09-30T21:39:59;21.15;;;18.98;;
79137;SDS011;68544;45.566;10.238;2023-09-30T21:42:24;21.27;;;19.05;;
79137;SDS011;68544;45.566;10.238;2023-09-30T21:47:16;22.08;;;19.65;;
79137;SDS011;68544;45.566;10.238;2023-09-30T21:49:42;22.58;;;20.50;;
79137;SDS011;68544;45.566;10.238;2023-09-30T21:52:07;22.58;;;20.23;;
79137;SDS011;68544;45.566;10.238;2023-09-30T21:56:58;22.52;;;20.23;;
79137;SDS011;68544;45.566;10.238;2023-09-30T21:59:23;22.38;;;19.70;;
79137;SDS011;68544;45.566;10.238;2023-09-30T22:04:14;21.83;;;19.57;;
79137;SDS011;68544;45.566;10.238;2023-09-30T22:06:41;20.98;;;18.85;;
79137;SDS011;68544;45.566;10.238;2023-09-30T22:09:07;21.00;;;18.90;;
79137;SDS011;68544;45.566;10.238;2023-09-30T22:11:34;20.83;;;18.75;;
79137;SDS011;68544;45.566;10.238;2023-09-30T22:16:28;19.17;;;17.27;;
79137;SDS011;68544;45.566;10.238;2023-09-30T22:18:56;20.67;;;18.20;;
79137;SDS011;68544;45.566;10.238;2023-09-30T22:21:22;19.42;;;17.63;;
79137;SDS011;68544;45.566;10.238;2023-09-30T22:26:13;19.80;;;17.73;;
79137;SDS011;68544;45.566;10.238;2023-09-30T22:28:38;19.60;;;16.67;;
79137;SDS011;68544;45.566;10.238;2023-09-30T22:31:03;19.40;;;16.73;;
79137;SDS011;68544;45.566;10.238;2023-09-30T22:33:30;17.75;;;15.93;;
79137;SDS011;68544;45.566;10.238;2023-09-30T22:35:55;17.48;;;15.35;;
79137;SDS011;68544;45.566;10.238;2023-09-30T22:38:21;19.38;;;16.05;;
79137;SDS011;68544;45.566;10.238;2023-09-30T22:40:46;20.43;;;16.87;;
79137;SDS011;68544;45.566;10.238;2023-09-30T22:45:37;18.48;;;15.32;;
79137;SDS011;68544;45.566;10.238;2023-09-30T22:48:03;17.90;;;16.15;;
79137;SDS011;68544;45.566;10.238;2023-09-30T22:50:31;18.08;;;16.27;;
79137;SDS011;68544;45.566;10.238;2023-09-30T22:52:57;18.40;;;16.05;;
79137;SDS011;68544;45.566;10.238;2023-09-30T22:55:22;17.35;;;15.57;;
79137;SDS011;68544;45.566;10.238;2023-09-30T22:57:49;17.88;;;16.10;;
79137;SDS011;68544;45.566;10.238;2023-09-30T23:00:15;19.52;;;17.30;;
79137;SDS011;68544;45.566;10.238;2023-09-30T23:02:44;19.05;;;17.15;;
79137;SDS011;68544;45.566;10.238;2023-09-30T23:05:11;18.45;;;16.63;;
79137;SDS011;68544;45.566;10.238;2023-09-30T23:07:45;19.08;;;17.27;;
79137;SDS011;68544;45.566;10.238;2023-09-30T23:10:15;19.20;;;17.25;;
79137;SDS011;68544;45.566;10.238;2023-09-30T23:12:41;18.35;;;16.42;;
79137;SDS011;68544;45.566;10.238;2023-09-30T23:15:12;19.63;;;17.30;;
79137;SDS011;68544;45.566;10.238;2023-09-30T23:17:39;19.80;;;17.58;;
79137;SDS011;68544;45.566;10.238;2023-09-30T23:22:38;21.45;;;18.05;;
79137;SDS011;68544;45.566;10.238;2023-09-30T23:25:10;20.65;;;18.67;;
79137;SDS011;68544;45.566;10.238;2023-09-30T23:27:41;19.55;;;17.63;;
79137;SDS011;68544;45.566;10.238;2023-09-30T23:30:08;19.45;;;17.40;;
79137;SDS011;68544;45.566;10.238;2023-09-30T23:32:39;18.65;;;16.83;;
79137;SDS011;68544;45.566;10.238;2023-09-30T23:35:09;19.08;;;17.45;;
79137;SDS011;68544;45.566;10.238;2023-09-30T23:37:36;19.58;;;17.55;;
79137;SDS011;68544;45.566;10.238;2023-09-30T23:40:01;17.30;;;15.70;;
79137;SDS011;68544;45.566;10.238;2023-09-30T23:42:32;17.65;;;15.68;;
79137;SDS011;68544;45.566;10.238;2023-09-30T23:44:57;18.58;;;16.60;;
79137;SDS011;68544;45.566;10.238;2023-09-30T23:47:22;18.85;;;16.52;;
79137;SDS011;68544;45.566;10.238;2023-09-30T23:49:49;15.75;;;14.23;;
79137;SDS011;68544;45.566;10.238;2023-09-30T23:52:14;15.43;;;13.87;;
79137;SDS011;68544;45.566;10.238;2023-09-30T23:54:39;15.05;;;13.55;;
79137;SDS011;68544;45.566;10.238;2023-09-30T23:57:05;16.67;;;13.55;;
79137;SDS011;68544;45.566;10.238;2023-09-30T23:59:33;16.75;;;13.93;;
